Current Weather

Middle Wallop

Middle Wallop, United Kingdom (EGVP)

Report from: Monday, July 22, 2024 12:20 PM BST
Current time: Monday, July 22, 2024 12:42 PM BST

Nearby weather – Weather history – Daily summaries
Weather forecast

Temperature22.0°C (71.6°F)
Dew point17.0°C (62.6°F)
Winds 13 kts (6.7 m/s, 15 mph) South-Southwest (210°)
Visibility6.2 mi. (10 km)
Clouds Scattered clouds 1,900 ft. (579 m)
Few clouds 1,900 ft. (579 m)
Scattered clouds 2,500 ft. (762 m)
Altimeter29.94 in.Hg (1014 mB)
Relative humidity73 %
Density altitude1,056 ft. (322 m)
Remarks Temporarily
Flight conditions Visual Meteorological Conditions
Raw dataEGVP 221120Z 21013KT 9999 SCT019 22/17 Q1014 TEMPO FEW019 SCT025 RMK WHT TEMPO BLU
An error has occurred. This application may no longer respond until reloaded. Reload 🗙